sensor_id;sensor_type;location;lat;lon;timestamp;P1;P2;P0
26185;PMS7003;20067;48.764;9.176;2023-02-24T00:00:10;33.25;28.25;17.25
26185;PMS7003;20067;48.764;9.176;2023-02-24T00:02:56;35.25;31.25;16.00
26185;PMS7003;20067;48.764;9.176;2023-02-24T00:05:29;29.75;27.75;17.50
26185;PMS7003;20067;48.764;9.176;2023-02-24T00:07:57;39.25;30.00;18.25
26185;PMS7003;20067;48.764;9.176;2023-02-24T00:10:23;34.75;30.25;16.75
26185;PMS7003;20067;48.764;9.176;2023-02-24T00:12:48;37.00;31.25;18.75
26185;PMS7003;20067;48.764;9.176;2023-02-24T00:15:14;34.50;29.25;16.25
26185;PMS7003;20067;48.764;9.176;2023-02-24T00:17:41;42.25;36.25;20.25
26185;PMS7003;20067;48.764;9.176;2023-02-24T00:20:10;33.50;30.75;19.00
26185;PMS7003;20067;48.764;9.176;2023-02-24T00:22:38;43.25;34.50;19.50
26185;PMS7003;20067;48.764;9.176;2023-02-24T00:25:04;36.50;32.00;20.00
26185;PMS7003;20067;48.764;9.176;2023-02-24T00:27:30;32.50;30.75;16.00
26185;PMS7003;20067;48.764;9.176;2023-02-24T00:29:56;34.25;31.00;15.50
26185;PMS7003;20067;48.764;9.176;2023-02-24T00:32:22;43.75;33.50;21.00
26185;PMS7003;20067;48.764;9.176;2023-02-24T00:34:48;35.75;31.75;19.00
26185;PMS7003;20067;48.764;9.176;2023-02-24T00:37:13;35.50;33.75;21.00
26185;PMS7003;20067;48.764;9.176;2023-02-24T00:39:39;42.50;35.75;20.50
26185;PMS7003;20067;48.764;9.176;2023-02-24T00:42:05;40.00;35.00;22.75
26185;PMS7003;20067;48.764;9.176;2023-02-24T00:44:32;40.50;36.50;20.75
26185;PMS7003;20067;48.764;9.176;2023-02-24T00:47:03;41.75;38.00;23.00
26185;PMS7003;20067;48.764;9.176;2023-02-24T00:49:31;39.50;30.50;18.25
26185;PMS7003;20067;48.764;9.176;2023-02-24T00:51:57;42.00;36.25;20.00
26185;PMS7003;20067;48.764;9.176;2023-02-24T00:54:24;39.00;31.00;18.00
26185;PMS7003;20067;48.764;9.176;2023-02-24T00:56:52;39.75;36.00;22.25
26185;PMS7003;20067;48.764;9.176;2023-02-24T00:59:19;42.25;30.75;18.75
26185;PMS7003;20067;48.764;9.176;2023-02-24T01:01:47;38.00;33.50;20.75
26185;PMS7003;20067;48.764;9.176;2023-02-24T01:04:14;40.00;33.25;21.75
26185;PMS7003;20067;48.764;9.176;2023-02-24T01:06:43;40.75;34.00;19.75
26185;PMS7003;20067;48.764;9.176;2023-02-24T01:09:12;44.00;38.00;21.75
26185;PMS7003;20067;48.764;9.176;2023-02-24T01:11:40;42.75;35.50;21.00
26185;PMS7003;20067;48.764;9.176;2023-02-24T01:14:29;42.50;36.25;19.50
26185;PMS7003;20067;48.764;9.176;2023-02-24T01:16:57;41.50;36.75;22.50
26185;PMS7003;20067;48.764;9.176;2023-02-24T01:19:24;49.50;40.25;21.00
26185;PMS7003;20067;48.764;9.176;2023-02-24T01:21:55;38.00;36.25;22.00
26185;PMS7003;20067;48.764;9.176;2023-02-24T01:24:26;42.00;39.00;24.75
26185;PMS7003;20067;48.764;9.176;2023-02-24T01:26:53;43.75;40.50;22.75
26185;PMS7003;20067;48.764;9.176;2023-02-24T01:29:19;43.75;35.50;24.00
26185;PMS7003;20067;48.764;9.176;2023-02-24T01:31:47;48.50;43.25;27.00
26185;PMS7003;20067;48.764;9.176;2023-02-24T01:34:14;44.25;38.00;21.00
26185;PMS7003;20067;48.764;9.176;2023-02-24T01:36:41;42.00;37.75;23.50
26185;PMS7003;20067;48.764;9.176;2023-02-24T01:39:07;37.50;34.75;21.25
26185;PMS7003;20067;48.764;9.176;2023-02-24T01:41:36;44.00;39.25;21.75
26185;PMS7003;20067;48.764;9.176;2023-02-24T01:44:04;48.00;40.00;22.50
26185;PMS7003;20067;48.764;9.176;2023-02-24T01:46:35;47.25;40.00;23.00
26185;PMS7003;20067;48.764;9.176;2023-02-24T01:49:16;46.50;38.25;22.75
26185;PMS7003;20067;48.764;9.176;2023-02-24T01:51:59;52.00;43.00;23.75
26185;PMS7003;20067;48.764;9.176;2023-02-24T01:54:42;42.75;36.50;21.75
26185;PMS7003;20067;48.764;9.176;2023-02-24T01:57:12;42.50;35.00;23.00
26185;PMS7003;20067;48.764;9.176;2023-02-24T01:59:41;41.25;37.25;21.75
26185;PMS7003;20067;48.764;9.176;2023-02-24T02:02:10;43.75;37.25;22.25
26185;PMS7003;20067;48.764;9.176;2023-02-24T02:04:41;43.50;35.75;24.00
26185;PMS7003;20067;48.764;9.176;2023-02-24T02:07:12;47.00;42.75;25.75
26185;PMS7003;20067;48.764;9.176;2023-02-24T02:09:40;42.25;39.00;26.00
26185;PMS7003;20067;48.764;9.176;2023-02-24T02:12:08;44.25;37.50;24.00
26185;PMS7003;20067;48.764;9.176;2023-02-24T02:14:34;48.25;39.75;23.75
26185;PMS7003;20067;48.764;9.176;2023-02-24T02:17:11;43.50;35.75;23.00
26185;PMS7003;20067;48.764;9.176;2023-02-24T02:44:16;55.25;43.25;26.75
26185;PMS7003;20067;48.764;9.176;2023-02-24T02:46:48;40.25;35.75;23.25
26185;PMS7003;20067;48.764;9.176;2023-02-24T02:49:44;37.75;35.50;20.50
26185;PMS7003;20067;48.764;9.176;2023-02-24T02:52:25;48.50;38.50;20.75
26185;PMS7003;20067;48.764;9.176;2023-02-24T02:54:59;46.75;34.75;22.00
26185;PMS7003;20067;48.764;9.176;2023-02-24T02:57:33;37.25;34.25;20.25
26185;PMS7003;20067;48.764;9.176;2023-02-24T03:00:03;34.50;30.25;20.50
26185;PMS7003;20067;48.764;9.176;2023-02-24T03:02:47;44.25;35.00;20.00
26185;PMS7003;20067;48.764;9.176;2023-02-24T03:05:17;42.00;36.50;19.00
26185;PMS7003;20067;48.764;9.176;2023-02-24T03:07:49;41.25;34.50;19.50
26185;PMS7003;20067;48.764;9.176;2023-02-24T03:10:23;37.00;32.75;20.25
26185;PMS7003;20067;48.764;9.176;2023-02-24T03:12:52;50.25;39.75;22.50
26185;PMS7003;20067;48.764;9.176;2023-02-24T03:15:20;42.25;34.75;21.75
26185;PMS7003;20067;48.764;9.176;2023-02-24T03:17:49;48.25;36.75;22.50
26185;PMS7003;20067;48.764;9.176;2023-02-24T03:20:26;37.00;31.25;18.00
26185;PMS7003;20067;48.764;9.176;2023-02-24T03:25:35;45.50;37.75;20.00
26185;PMS7003;20067;48.764;9.176;2023-02-24T03:28:11;46.00;43.00;24.75
26185;PMS7003;20067;48.764;9.176;2023-02-24T03:30:48;52.75;42.75;23.25
26185;PMS7003;20067;48.764;9.176;2023-02-24T03:33:26;39.75;35.75;21.50
26185;PMS7003;20067;48.764;9.176;2023-02-24T03:36:00;44.25;39.00;23.50
26185;PMS7003;20067;48.764;9.176;2023-02-24T03:38:27;52.75;39.00;22.75
26185;PMS7003;20067;48.764;9.176;2023-02-24T03:40:56;44.75;39.25;22.00
26185;PMS7003;20067;48.764;9.176;2023-02-24T03:43:24;39.25;34.75;20.75
26185;PMS7003;20067;48.764;9.176;2023-02-24T03:45:55;36.75;34.25;18.75
26185;PMS7003;20067;48.764;9.176;2023-02-24T03:48:22;44.25;37.50;19.50
26185;PMS7003;20067;48.764;9.176;2023-02-24T03:50:51;43.50;41.00;22.00
26185;PMS7003;20067;48.764;9.176;2023-02-24T03:56:00;46.75;38.25;21.00
26185;PMS7003;20067;48.764;9.176;2023-02-24T03:58:53;39.00;33.75;21.00
26185;PMS7003;20067;48.764;9.176;2023-02-24T04:04:44;56.00;44.50;21.00
26185;PMS7003;20067;48.764;9.176;2023-02-24T04:10:08;44.00;34.75;20.25
26185;PMS7003;20067;48.764;9.176;2023-02-24T04:12:47;45.25;35.50;19.75
26185;PMS7003;20067;48.764;9.176;2023-02-24T04:18:27;48.50;40.75;25.00
26185;PMS7003;20067;48.764;9.176;2023-02-24T04:20:48;47.00;40.50;22.50
26185;PMS7003;20067;48.764;9.176;2023-02-24T04:23:17;51.25;43.00;22.00
26185;PMS7003;20067;48.764;9.176;2023-02-24T04:25:50;51.50;42.25;23.50
26185;PMS7003;20067;48.764;9.176;2023-02-24T04:28:17;50.25;43.75;26.25
26185;PMS7003;20067;48.764;9.176;2023-02-24T04:30:47;45.00;39.75;20.50
26185;PMS7003;20067;48.764;9.176;2023-02-24T04:33:15;43.50;36.25;20.25
26185;PMS7003;20067;48.764;9.176;2023-02-24T04:35:45;45.50;38.50;24.00
26185;PMS7003;20067;48.764;9.176;2023-02-24T04:38:14;45.00;38.50;22.50
26185;PMS7003;20067;48.764;9.176;2023-02-24T04:40:41;50.00;41.25;23.00
26185;PMS7003;20067;48.764;9.176;2023-02-24T04:43:07;44.25;38.75;24.75
26185;PMS7003;20067;48.764;9.176;2023-02-24T04:45:33;57.25;45.75;25.75
26185;PMS7003;20067;48.764;9.176;2023-02-24T04:48:01;51.50;45.75;25.75
26185;PMS7003;20067;48.764;9.176;2023-02-24T04:50:29;51.00;39.00;24.50
26185;PMS7003;20067;48.764;9.176;2023-02-24T04:53:06;48.50;40.75;23.00
26185;PMS7003;20067;48.764;9.176;2023-02-24T04:55:40;55.50;44.75;24.25
26185;PMS7003;20067;48.764;9.176;2023-02-24T04:58:10;45.25;42.50;26.00
26185;PMS7003;20067;48.764;9.176;2023-02-24T05:00:38;53.75;43.25;23.00
26185;PMS7003;20067;48.764;9.176;2023-02-24T05:03:06;53.75;46.75;25.75
26185;PMS7003;20067;48.764;9.176;2023-02-24T05:05:37;55.50;45.75;24.25
26185;PMS7003;20067;48.764;9.176;2023-02-24T05:08:06;58.75;44.50;22.00
26185;PMS7003;20067;48.764;9.176;2023-02-24T05:10:41;58.25;47.75;27.00
26185;PMS7003;20067;48.764;9.176;2023-02-24T05:13:10;52.00;46.50;25.00
26185;PMS7003;20067;48.764;9.176;2023-02-24T05:15:43;47.50;44.00;22.50
26185;PMS7003;20067;48.764;9.176;2023-02-24T05:18:11;52.75;46.50;25.75
26185;PMS7003;20067;48.764;9.176;2023-02-24T05:20:43;52.25;44.00;23.25
26185;PMS7003;20067;48.764;9.176;2023-02-24T05:23:44;48.00;44.50;25.25
26185;PMS7003;20067;48.764;9.176;2023-02-24T05:26:15;60.25;47.00;25.25
26185;PMS7003;20067;48.764;9.176;2023-02-24T05:28:43;45.75;42.00;24.75
26185;PMS7003;20067;48.764;9.176;2023-02-24T05:31:13;48.50;40.25;20.25
26185;PMS7003;20067;48.764;9.176;2023-02-24T05:33:42;44.25;42.00;25.50
26185;PMS7003;20067;48.764;9.176;2023-02-24T05:36:10;48.00;39.75;20.00
26185;PMS7003;20067;48.764;9.176;2023-02-24T05:38:42;49.75;43.50;24.00
26185;PMS7003;20067;48.764;9.176;2023-02-24T05:41:09;51.00;41.75;24.00
26185;PMS7003;20067;48.764;9.176;2023-02-24T05:43:43;54.50;44.75;25.25
26185;PMS7003;20067;48.764;9.176;2023-02-24T05:46:15;52.75;45.50;26.00
26185;PMS7003;20067;48.764;9.176;2023-02-24T05:48:41;43.25;37.00;20.50
26185;PMS7003;20067;48.764;9.176;2023-02-24T05:51:08;53.25;45.00;24.25
26185;PMS7003;20067;48.764;9.176;2023-02-24T05:53:36;50.00;43.50;23.00
26185;PMS7003;20067;48.764;9.176;2023-02-24T05:56:08;43.00;34.25;21.00
26185;PMS7003;20067;48.764;9.176;2023-02-24T05:58:34;49.50;43.25;21.25
26185;PMS7003;20067;48.764;9.176;2023-02-24T06:01:12;50.50;43.50;24.75
26185;PMS7003;20067;48.764;9.176;2023-02-24T06:03:43;54.00;43.75;23.25
26185;PMS7003;20067;48.764;9.176;2023-02-24T06:06:14;48.00;39.50;20.25
26185;PMS7003;20067;48.764;9.176;2023-02-24T06:08:40;48.75;40.00;21.00
26185;PMS7003;20067;48.764;9.176;2023-02-24T06:11:10;49.50;41.00;21.50
26185;PMS7003;20067;48.764;9.176;2023-02-24T06:13:36;46.00;40.25;22.75
26185;PMS7003;20067;48.764;9.176;2023-02-24T06:16:05;58.75;45.00;24.00
26185;PMS7003;20067;48.764;9.176;2023-02-24T06:18:31;44.00;38.50;21.75
26185;PMS7003;20067;48.764;9.176;2023-02-24T06:21:00;46.00;41.50;25.50
26185;PMS7003;20067;48.764;9.176;2023-02-24T06:23:27;44.00;39.25;22.75
26185;PMS7003;20067;48.764;9.176;2023-02-24T06:25:52;76.00;53.00;29.75
26185;PMS7003;20067;48.764;9.176;2023-02-24T06:28:21;56.75;43.50;21.00
26185;PMS7003;20067;48.764;9.176;2023-02-24T06:30:48;43.75;38.00;22.25
26185;PMS7003;20067;48.764;9.176;2023-02-24T06:33:14;54.25;43.25;22.00
26185;PMS7003;20067;48.764;9.176;2023-02-24T06:35:40;53.50;46.00;22.00
26185;PMS7003;20067;48.764;9.176;2023-02-24T06:38:06;43.25;40.50;22.25
26185;PMS7003;20067;48.764;9.176;2023-02-24T06:40:32;51.25;41.00;24.00
26185;PMS7003;20067;48.764;9.176;2023-02-24T06:42:58;50.75;41.75;24.50
26185;PMS7003;20067;48.764;9.176;2023-02-24T06:45:24;48.00;39.25;21.00
26185;PMS7003;20067;48.764;9.176;2023-02-24T06:47:50;49.25;43.00;21.25
26185;PMS7003;20067;48.764;9.176;2023-02-24T06:50:17;52.75;42.25;21.75
26185;PMS7003;20067;48.764;9.176;2023-02-24T06:52:47;48.00;40.25;22.75
26185;PMS7003;20067;48.764;9.176;2023-02-24T06:55:14;49.50;39.75;22.25
26185;PMS7003;20067;48.764;9.176;2023-02-24T06:57:51;52.00;44.25;23.00
26185;PMS7003;20067;48.764;9.176;2023-02-24T07:00:22;51.00;41.75;23.00
26185;PMS7003;20067;48.764;9.176;2023-02-24T07:03:00;44.75;37.50;21.00
26185;PMS7003;20067;48.764;9.176;2023-02-24T07:05:34;54.50;44.00;24.25
26185;PMS7003;20067;48.764;9.176;2023-02-24T07:07:59;53.00;45.00;25.75
26185;PMS7003;20067;48.764;9.176;2023-02-24T07:10:25;55.25;45.75;24.00
26185;PMS7003;20067;48.764;9.176;2023-02-24T07:12:51;46.75;37.00;21.00
26185;PMS7003;20067;48.764;9.176;2023-02-24T07:15:18;53.25;44.25;23.75
26185;PMS7003;20067;48.764;9.176;2023-02-24T07:17:45;56.25;45.25;24.00
26185;PMS7003;20067;48.764;9.176;2023-02-24T07:20:11;54.50;43.25;21.00
26185;PMS7003;20067;48.764;9.176;2023-02-24T07:22:49;49.75;41.00;24.00
26185;PMS7003;20067;48.764;9.176;2023-02-24T07:25:15;53.00;44.75;23.50
26185;PMS7003;20067;48.764;9.176;2023-02-24T07:27:56;49.75;42.25;22.00
26185;PMS7003;20067;48.764;9.176;2023-02-24T07:30:29;56.50;46.25;24.00
26185;PMS7003;20067;48.764;9.176;2023-02-24T07:32:57;48.75;43.00;26.25
26185;PMS7003;20067;48.764;9.176;2023-02-24T07:35:27;50.00;42.00;21.50
26185;PMS7003;20067;48.764;9.176;2023-02-24T07:37:53;58.50;45.50;22.75
26185;PMS7003;20067;48.764;9.176;2023-02-24T07:40:25;54.00;45.00;23.00
26185;PMS7003;20067;48.764;9.176;2023-02-24T07:42:54;51.50;45.50;23.25
26185;PMS7003;20067;48.764;9.176;2023-02-24T07:45:21;53.50;45.75;23.50
26185;PMS7003;20067;48.764;9.176;2023-02-24T07:47:47;63.00;46.25;25.25
26185;PMS7003;20067;48.764;9.176;2023-02-24T07:50:13;47.50;42.25;23.25
26185;PMS7003;20067;48.764;9.176;2023-02-24T07:52:42;49.75;43.75;23.25
26185;PMS7003;20067;48.764;9.176;2023-02-24T07:55:09;59.25;47.00;24.50
26185;PMS7003;20067;48.764;9.176;2023-02-24T07:57:35;57.75;45.50;26.75
26185;PMS7003;20067;48.764;9.176;2023-02-24T08:00:04;50.00;44.00;25.00
26185;PMS7003;20067;48.764;9.176;2023-02-24T08:02:44;65.00;50.25;30.75
26185;PMS7003;20067;48.764;9.176;2023-02-24T08:05:10;59.75;44.25;26.75
26185;PMS7003;20067;48.764;9.176;2023-02-24T08:07:36;64.50;51.25;30.75
26185;PMS7003;20067;48.764;9.176;2023-02-24T08:10:04;72.00;52.00;35.00
26185;PMS7003;20067;48.764;9.176;2023-02-24T08:12:34;70.67;57.67;37.33
26185;PMS7003;20067;48.764;9.176;2023-02-24T08:15:06;74.67;62.67;39.67
26185;PMS7003;20067;48.764;9.176;2023-02-24T08:17:41;71.33;57.67;39.33
26185;PMS7003;20067;48.764;9.176;2023-02-24T08:20:08;79.33;61.67;42.00
26185;PMS7003;20067;48.764;9.176;2023-02-24T08:22:38;76.67;61.67;42.00
26185;PMS7003;20067;48.764;9.176;2023-02-24T08:25:08;76.00;61.00;40.00
26185;PMS7003;20067;48.764;9.176;2023-02-24T08:27:35;80.00;64.00;41.00
26185;PMS7003;20067;48.764;9.176;2023-02-24T08:30:06;84.00;68.00;45.00
26185;PMS7003;20067;48.764;9.176;2023-02-24T08:35:14;71.33;60.00;41.00
26185;PMS7003;20067;48.764;9.176;2023-02-24T08:37:42;84.67;63.33;44.00
26185;PMS7003;20067;48.764;9.176;2023-02-24T08:48:08;49.00;40.50;24.75
26185;PMS7003;20067;48.764;9.176;2023-02-24T08:50:51;44.50;38.00;20.50
26185;PMS7003;20067;48.764;9.176;2023-02-24T08:53:18;48.25;42.50;22.75
26185;PMS7003;20067;48.764;9.176;2023-02-24T08:55:44;51.50;42.25;21.50
26185;PMS7003;20067;48.764;9.176;2023-02-24T08:58:10;44.75;39.00;22.50
26185;PMS7003;20067;48.764;9.176;2023-02-24T09:00:42;41.25;37.00;21.75
26185;PMS7003;20067;48.764;9.176;2023-02-24T09:03:19;38.00;31.50;18.25
26185;PMS7003;20067;48.764;9.176;2023-02-24T09:06:06;38.25;29.00;18.50
26185;PMS7003;20067;48.764;9.176;2023-02-24T09:08:36;35.00;32.25;16.75
26185;PMS7003;20067;48.764;9.176;2023-02-24T09:11:08;48.00;40.25;20.75
26185;PMS7003;20067;48.764;9.176;2023-02-24T09:13:43;45.00;37.75;22.00
26185;PMS7003;20067;48.764;9.176;2023-02-24T09:16:20;41.50;31.50;18.25
26185;PMS7003;20067;48.764;9.176;2023-02-24T09:18:47;40.25;34.50;20.00
26185;PMS7003;20067;48.764;9.176;2023-02-24T09:21:34;39.75;32.75;18.25
26185;PMS7003;20067;48.764;9.176;2023-02-24T09:24:12;38.25;30.00;18.00
26185;PMS7003;20067;48.764;9.176;2023-02-24T09:26:38;37.50;27.25;16.00
26185;PMS7003;20067;48.764;9.176;2023-02-24T09:29:10;32.00;30.00;15.50
26185;PMS7003;20067;48.764;9.176;2023-02-24T09:31:57;36.00;31.25;16.25
26185;PMS7003;20067;48.764;9.176;2023-02-24T09:34:32;28.00;25.50;12.00
26185;PMS7003;20067;48.764;9.176;2023-02-24T09:36:59;23.75;20.75;10.00
26185;PMS7003;20067;48.764;9.176;2023-02-24T09:39:28;29.25;20.75;12.00
26185;PMS7003;20067;48.764;9.176;2023-02-24T09:42:22;25.25;21.25;10.00
26185;PMS7003;20067;48.764;9.176;2023-02-24T09:44:59;24.25;20.75;9.00
26185;PMS7003;20067;48.764;9.176;2023-02-24T09:52:48;33.50;26.00;15.25
26185;PMS7003;20067;48.764;9.176;2023-02-24T09:55:59;32.00;28.25;15.75
26185;PMS7003;20067;48.764;9.176;2023-02-24T10:01:35;29.25;25.25;14.00
26185;PMS7003;20067;48.764;9.176;2023-02-24T10:04:12;30.25;24.25;13.00
26185;PMS7003;20067;48.764;9.176;2023-02-24T10:07:13;25.25;21.25;12.00
26185;PMS7003;20067;48.764;9.176;2023-02-24T10:09:43;31.50;29.00;12.00
26185;PMS7003;20067;48.764;9.176;2023-02-24T10:14:50;24.50;20.00;10.00
26185;PMS7003;20067;48.764;9.176;2023-02-24T10:17:51;23.25;20.25;10.25
26185;PMS7003;20067;48.764;9.176;2023-02-24T10:25:48;23.00;20.00;8.50
26185;PMS7003;20067;48.764;9.176;2023-02-24T10:28:26;28.25;27.25;10.75
26185;PMS7003;20067;48.764;9.176;2023-02-24T10:33:49;27.75;22.00;12.00
26185;PMS7003;20067;48.764;9.176;2023-02-24T10:36:21;30.50;22.00;11.75
26185;PMS7003;20067;48.764;9.176;2023-02-24T10:39:01;30.50;26.25;13.00
26185;PMS7003;20067;48.764;9.176;2023-02-24T10:41:44;28.75;23.75;12.00
26185;PMS7003;20067;48.764;9.176;2023-02-24T10:44:22;27.00;25.00;12.50
26185;PMS7003;20067;48.764;9.176;2023-02-24T10:46:59;27.00;23.75;13.25
26185;PMS7003;20067;48.764;9.176;2023-02-24T10:49:48;22.75;20.75;11.75
26185;PMS7003;20067;48.764;9.176;2023-02-24T10:52:30;24.50;21.50;10.00
26185;PMS7003;20067;48.764;9.176;2023-02-24T10:55:44;28.00;23.75;10.00
26185;PMS7003;20067;48.764;9.176;2023-02-24T10:58:22;27.00;19.75;10.00
26185;PMS7003;20067;48.764;9.176;2023-02-24T11:01:35;28.75;21.25;9.25
26185;PMS7003;20067;48.764;9.176;2023-02-24T11:04:28;27.50;22.50;13.00
26185;PMS7003;20067;48.764;9.176;2023-02-24T11:07:12;28.25;21.25;11.00
26185;PMS7003;20067;48.764;9.176;2023-02-24T11:10:04;28.00;23.50;13.75
26185;PMS7003;20067;48.764;9.176;2023-02-24T11:12:46;38.75;28.75;15.00
26185;PMS7003;20067;48.764;9.176;2023-02-24T11:15:35;34.75;27.50;15.00
26185;PMS7003;20067;48.764;9.176;2023-02-24T11:18:25;39.25;35.25;16.50
26185;PMS7003;20067;48.764;9.176;2023-02-24T11:20:54;35.25;30.50;14.75
26185;PMS7003;20067;48.764;9.176;2023-02-24T11:23:32;33.50;28.75;16.50
26185;PMS7003;20067;48.764;9.176;2023-02-24T11:34:58;32.25;29.75;16.00
26185;PMS7003;20067;48.764;9.176;2023-02-24T11:40:11;42.00;33.75;16.00
26185;PMS7003;20067;48.764;9.176;2023-02-24T11:42:54;34.00;29.25;14.50
26185;PMS7003;20067;48.764;9.176;2023-02-24T11:45:42;27.00;27.00;13.75
26185;PMS7003;20067;48.764;9.176;2023-02-24T11:48:36;35.25;27.50;15.00
26185;PMS7003;20067;48.764;9.176;2023-02-24T11:51:06;35.25;28.75;14.50
26185;PMS7003;20067;48.764;9.176;2023-02-24T11:53:48;30.25;25.75;13.00
26185;PMS7003;20067;48.764;9.176;2023-02-24T12:02:43;24.75;23.50;13.00
26185;PMS7003;20067;48.764;9.176;2023-02-24T12:04:35;33.00;26.25;13.00
26185;PMS7003;20067;48.764;9.176;2023-02-24T12:22:54;29.25;23.00;12.50
26185;PMS7003;20067;48.764;9.176;2023-02-24T12:25:27;22.75;21.25;10.50
26185;PMS7003;20067;48.764;9.176;2023-02-24T12:30:55;25.00;21.00;10.50
26185;PMS7003;20067;48.764;9.176;2023-02-24T12:44:37;21.50;15.25;8.00
26185;PMS7003;20067;48.764;9.176;2023-02-24T12:47:26;22.00;18.25;7.75
26185;PMS7003;20067;48.764;9.176;2023-02-24T12:52:39;20.25;16.50;8.00
26185;PMS7003;20067;48.764;9.176;2023-02-24T12:55:34;18.50;17.75;9.00
26185;PMS7003;20067;48.764;9.176;2023-02-24T12:58:07;24.50;21.50;10.25
26185;PMS7003;20067;48.764;9.176;2023-02-24T13:00:49;17.00;15.25;8.00
26185;PMS7003;20067;48.764;9.176;2023-02-24T13:08:30;15.00;15.00;6.00
26185;PMS7003;20067;48.764;9.176;2023-02-24T13:16:47;12.00;9.75;2.75
26185;PMS7003;20067;48.764;9.176;2023-02-24T13:22:19;15.00;13.00;7.00
26185;PMS7003;20067;48.764;9.176;2023-02-24T13:24:42;14.25;13.00;5.00
26185;PMS7003;20067;48.764;9.176;2023-02-24T13:27:30;13.25;11.00;5.00
26185;PMS7003;20067;48.764;9.176;2023-02-24T13:32:38;14.00;11.00;5.00
26185;PMS7003;20067;48.764;9.176;2023-02-24T13:37:44;15.25;11.25;5.00
26185;PMS7003;20067;48.764;9.176;2023-02-24T13:45:24;17.50;14.25;8.00
26185;PMS7003;20067;48.764;9.176;2023-02-24T14:02:26;18.25;13.00;4.50
26185;PMS7003;20067;48.764;9.176;2023-02-24T14:04:54;15.75;12.50;6.50
26185;PMS7003;20067;48.764;9.176;2023-02-24T14:07:26;11.50;11.00;5.00
26185;PMS7003;20067;48.764;9.176;2023-02-24T14:10:19;15.00;13.50;7.00
26185;PMS7003;20067;48.764;9.176;2023-02-24T14:13:00;27.50;21.50;11.00
26185;PMS7003;20067;48.764;9.176;2023-02-24T14:15:40;26.25;22.50;13.00
26185;PMS7003;20067;48.764;9.176;2023-02-24T14:18:16;30.25;24.75;11.00
26185;PMS7003;20067;48.764;9.176;2023-02-24T14:20:44;22.75;19.50;10.50
26185;PMS7003;20067;48.764;9.176;2023-02-24T14:23:28;26.25;22.25;10.00
26185;PMS7003;20067;48.764;9.176;2023-02-24T14:25:57;25.00;20.00;8.25
26185;PMS7003;20067;48.764;9.176;2023-02-24T14:28:33;27.50;20.75;10.00
26185;PMS7003;20067;48.764;9.176;2023-02-24T14:31:07;24.00;18.50;12.00
26185;PMS7003;20067;48.764;9.176;2023-02-24T14:33:37;25.00;21.25;9.50
26185;PMS7003;20067;48.764;9.176;2023-02-24T14:36:06;24.50;22.00;11.25
26185;PMS7003;20067;48.764;9.176;2023-02-24T14:38:41;29.00;24.50;9.75
26185;PMS7003;20067;48.764;9.176;2023-02-24T14:41:24;20.25;18.25;10.00
26185;PMS7003;20067;48.764;9.176;2023-02-24T14:43:51;20.75;18.00;8.75
26185;PMS7003;20067;48.764;9.176;2023-02-24T14:46:18;20.25;18.25;8.75
26185;PMS7003;20067;48.764;9.176;2023-02-24T14:48:44;25.00;20.50;12.00
26185;PMS7003;20067;48.764;9.176;2023-02-24T14:51:26;22.00;20.00;10.75
26185;PMS7003;20067;48.764;9.176;2023-02-24T14:54:00;20.75;18.75;10.00
26185;PMS7003;20067;48.764;9.176;2023-02-24T14:56:31;25.50;19.50;10.00
26185;PMS7003;20067;48.764;9.176;2023-02-24T14:59:00;21.75;17.25;7.00
26185;PMS7003;20067;48.764;9.176;2023-02-24T15:01:34;20.75;16.75;10.50
26185;PMS7003;20067;48.764;9.176;2023-02-24T15:04:10;18.25;17.00;7.00
26185;PMS7003;20067;48.764;9.176;2023-02-24T15:06:40;17.50;15.50;8.00
26185;PMS7003;20067;48.764;9.176;2023-02-24T15:09:11;18.25;17.00;9.75
26185;PMS7003;20067;48.764;9.176;2023-02-24T15:11:50;20.00;16.00;8.00
26185;PMS7003;20067;48.764;9.176;2023-02-24T15:16:48;15.25;13.25;5.75
26185;PMS7003;20067;48.764;9.176;2023-02-24T15:22:19;24.50;20.25;9.75
26185;PMS7003;20067;48.764;9.176;2023-02-24T15:24:52;20.25;19.50;10.75
26185;PMS7003;20067;48.764;9.176;2023-02-24T15:27:21;23.00;17.75;8.25
26185;PMS7003;20067;48.764;9.176;2023-02-24T15:29:56;22.00;16.00;8.00
26185;PMS7003;20067;48.764;9.176;2023-02-24T15:32:25;21.75;20.50;9.75
26185;PMS7003;20067;48.764;9.176;2023-02-24T15:34:53;26.00;22.75;11.50
26185;PMS7003;20067;48.764;9.176;2023-02-24T15:39:50;21.50;18.25;9.25
26185;PMS7003;20067;48.764;9.176;2023-02-24T15:42:27;20.00;16.50;7.00
26185;PMS7003;20067;48.764;9.176;2023-02-24T15:44:58;19.50;18.50;8.50
26185;PMS7003;20067;48.764;9.176;2023-02-24T15:49:51;18.25;15.00;7.00
26185;PMS7003;20067;48.764;9.176;2023-02-24T15:52:19;18.75;18.00;7.00
26185;PMS7003;20067;48.764;9.176;2023-02-24T15:54:48;19.00;15.50;7.75
26185;PMS7003;20067;48.764;9.176;2023-02-24T15:57:14;18.00;15.50;6.00
26185;PMS7003;20067;48.764;9.176;2023-02-24T15:59:42;15.25;12.50;6.75
26185;PMS7003;20067;48.764;9.176;2023-02-24T16:02:10;13.50;12.50;7.00
26185;PMS7003;20067;48.764;9.176;2023-02-24T16:04:38;17.75;15.75;7.00
26185;PMS7003;20067;48.764;9.176;2023-02-24T16:07:04;15.50;13.25;7.00
26185;PMS7003;20067;48.764;9.176;2023-02-24T16:09:38;17.75;14.75;7.50
26185;PMS7003;20067;48.764;9.176;2023-02-24T16:12:06;20.75;15.25;7.00
26185;PMS7003;20067;48.764;9.176;2023-02-24T16:14:36;16.00;14.25;7.00
26185;PMS7003;20067;48.764;9.176;2023-02-24T16:17:03;24.50;18.50;9.00
26185;PMS7003;20067;48.764;9.176;2023-02-24T16:19:32;24.00;18.00;11.00
26185;PMS7003;20067;48.764;9.176;2023-02-24T16:21:58;20.00;16.00;8.00
26185;PMS7003;20067;48.764;9.176;2023-02-24T16:24:24;22.25;20.75;12.00
26185;PMS7003;20067;48.764;9.176;2023-02-24T16:26:49;31.25;25.25;13.75
26185;PMS7003;20067;48.764;9.176;2023-02-24T16:29:15;24.00;19.75;10.00
26185;PMS7003;20067;48.764;9.176;2023-02-24T16:31:41;20.25;17.75;9.75
26185;PMS7003;20067;48.764;9.176;2023-02-24T16:34:10;25.50;20.75;10.00
26185;PMS7003;20067;48.764;9.176;2023-02-24T16:36:39;22.75;20.75;11.75
26185;PMS7003;20067;48.764;9.176;2023-02-24T16:39:08;24.25;18.25;10.00
26185;PMS7003;20067;48.764;9.176;2023-02-24T16:41:35;20.25;17.00;9.00
26185;PMS7003;20067;48.764;9.176;2023-02-24T16:44:02;24.75;20.25;12.00
26185;PMS7003;20067;48.764;9.176;2023-02-24T16:46:27;23.25;19.50;10.00
26185;PMS7003;20067;48.764;9.176;2023-02-24T16:49:01;23.75;19.00;9.00
26185;PMS7003;20067;48.764;9.176;2023-02-24T16:51:31;19.00;17.25;9.00
26185;PMS7003;20067;48.764;9.176;2023-02-24T16:53:59;17.00;16.00;8.50
26185;PMS7003;20067;48.764;9.176;2023-02-24T16:56:25;24.25;19.75;9.00
26185;PMS7003;20067;48.764;9.176;2023-02-24T16:58:51;24.25;22.50;12.75
26185;PMS7003;20067;48.764;9.176;2023-02-24T17:01:18;16.25;15.50;8.00
26185;PMS7003;20067;48.764;9.176;2023-02-24T17:03:46;24.25;21.25;11.00